sensor_id;sensor_type;location;lat;lon;timestamp;pressure;altitude;pressure_sealevel;temperature;humidity
46291;BME280;32023;44.444;26.006;2023-02-03T00:01:54;100504.13;;;0.56;74.20
46291;BME280;32023;44.444;26.006;2023-02-03T00:04:20;100502.81;;;0.52;74.15
46291;BME280;32023;44.444;26.006;2023-02-03T00:07:11;100499.25;;;0.51;74.06
46291;BME280;32023;44.444;26.006;2023-02-03T00:09:39;100507.38;;;0.51;73.83
46291;BME280;32023;44.444;26.006;2023-02-03T00:12:06;100498.81;;;0.47;73.78
46291;BME280;32023;44.444;26.006;2023-02-03T00:14:32;100504.78;;;0.43;73.57
46291;BME280;32023;44.444;26.006;2023-02-03T00:16:59;100501.06;;;0.44;73.76
46291;BME280;32023;44.444;26.006;2023-02-03T00:19:25;100505.25;;;0.46;73.71
46291;BME280;32023;44.444;26.006;2023-02-03T00:21:52;100505.06;;;0.48;73.38
46291;BME280;32023;44.444;26.006;2023-02-03T00:24:18;100511.31;;;0.48;73.05
46291;BME280;32023;44.444;26.006;2023-02-03T00:26:45;100506.09;;;0.47;72.86
46291;BME280;32023;44.444;26.006;2023-02-03T00:29:12;100508.78;;;0.47;72.78
46291;BME280;32023;44.444;26.006;2023-02-03T00:31:40;100507.94;;;0.46;72.68
46291;BME280;32023;44.444;26.006;2023-02-03T00:34:06;100501.34;;;0.49;72.68
46291;BME280;32023;44.444;26.006;2023-02-03T00:36:33;100498.41;;;0.51;72.47
46291;BME280;32023;44.444;26.006;2023-02-03T00:39:00;100496.16;;;0.54;72.52
46291;BME280;32023;44.444;26.006;2023-02-03T00:41:29;100497.19;;;0.53;72.39
46291;BME280;32023;44.444;26.006;2023-02-03T00:44:02;100501.06;;;0.44;72.45
46291;BME280;32023;44.444;26.006;2023-02-03T00:46:29;100502.09;;;0.43;72.61
46291;BME280;32023;44.444;26.006;2023-02-03T00:48:55;100499.75;;;0.40;72.72
46291;BME280;32023;44.444;26.006;2023-02-03T00:51:22;100502.47;;;0.40;72.84
46291;BME280;32023;44.444;26.006;2023-02-03T00:53:48;100507.50;;;0.43;72.77
46291;BME280;32023;44.444;26.006;2023-02-03T00:56:15;100512.91;;;0.43;72.58
46291;BME280;32023;44.444;26.006;2023-02-03T00:58:41;100519.19;;;0.43;72.50
46291;BME280;32023;44.444;26.006;2023-02-03T01:01:08;100511.22;;;0.42;72.48
46291;BME280;32023;44.444;26.006;2023-02-03T01:03:34;100504.50;;;0.38;72.66
46291;BME280;32023;44.444;26.006;2023-02-03T01:06:16;100501.16;;;0.36;72.55
46291;BME280;32023;44.444;26.006;2023-02-03T01:08:48;100508.28;;;0.37;72.59
46291;BME280;32023;44.444;26.006;2023-02-03T01:11:20;100449.13;;;0.05;72.63
46291;BME280;32023;44.444;26.006;2023-02-03T01:13:47;100506.03;;;0.40;72.70
46291;BME280;32023;44.444;26.006;2023-02-03T01:16:18;100511.91;;;0.44;72.56
46291;BME280;32023;44.444;26.006;2023-02-03T01:18:45;100513.59;;;0.45;72.43
46291;BME280;32023;44.444;26.006;2023-02-03T01:21:14;100515.34;;;0.38;72.28
46291;BME280;32023;44.444;26.006;2023-02-03T01:23:49;100510.25;;;0.28;72.73
46291;BME280;32023;44.444;26.006;2023-02-03T01:26:19;100501.66;;;0.25;72.96
46291;BME280;32023;44.444;26.006;2023-02-03T01:28:55;100496.81;;;0.20;72.92
46291;BME280;32023;44.444;26.006;2023-02-03T01:31:27;100493.63;;;0.17;73.03
46291;BME280;32023;44.444;26.006;2023-02-03T01:33:55;100491.72;;;0.11;73.06
46291;BME280;32023;44.444;26.006;2023-02-03T01:36:24;100488.44;;;0.00;73.50
46291;BME280;32023;44.444;26.006;2023-02-03T01:38:51;100481.72;;;-0.04;73.71
46291;BME280;32023;44.444;26.006;2023-02-03T01:41:23;100477.72;;;-0.08;73.83
46291;BME280;32023;44.444;26.006;2023-02-03T01:43:52;100478.94;;;-0.10;73.99
46291;BME280;32023;44.444;26.006;2023-02-03T01:49:05;100506.53;;;-0.15;74.30
46291;BME280;32023;44.444;26.006;2023-02-03T01:51:33;100511.78;;;-0.13;74.84
46291;BME280;32023;44.444;26.006;2023-02-03T01:54:07;100513.00;;;-0.16;74.96
46291;BME280;32023;44.444;26.006;2023-02-03T01:56:39;100514.88;;;-0.16;75.79
46291;BME280;32023;44.444;26.006;2023-02-03T01:59:07;100516.34;;;-0.14;76.07
46291;BME280;32023;44.444;26.006;2023-02-03T02:01:34;100515.50;;;-0.14;76.29
46291;BME280;32023;44.444;26.006;2023-02-03T02:04:03;100512.16;;;-0.16;76.65
46291;BME280;32023;44.444;26.006;2023-02-03T02:06:31;100511.31;;;-0.17;76.74
46291;BME280;32023;44.444;26.006;2023-02-03T02:08:59;100519.72;;;-0.12;76.75
46291;BME280;32023;44.444;26.006;2023-02-03T02:11:27;100519.34;;;-0.09;76.66
46291;BME280;32023;44.444;26.006;2023-02-03T02:13:56;100513.72;;;-0.07;76.51
46291;BME280;32023;44.444;26.006;2023-02-03T02:16:37;100513.09;;;-0.09;76.60
46291;BME280;32023;44.444;26.006;2023-02-03T02:33:35;100509.63;;;-0.47;77.30
46291;BME280;32023;44.444;26.006;2023-02-03T02:38:47;100518.84;;;-0.56;77.66
46291;BME280;32023;44.444;26.006;2023-02-03T02:44:09;100520.16;;;-0.52;77.80
46291;BME280;32023;44.444;26.006;2023-02-03T02:46:49;100522.69;;;-0.51;77.90
46291;BME280;32023;44.444;26.006;2023-02-03T02:51:48;100533.13;;;-0.33;77.63
46291;BME280;32023;44.444;26.006;2023-02-03T02:54:19;100531.03;;;-0.23;77.29
46291;BME280;32023;44.444;26.006;2023-02-03T02:56:52;100545.94;;;-0.12;77.23
46291;BME280;32023;44.444;26.006;2023-02-03T02:59:20;100540.63;;;-0.06;76.58
46291;BME280;32023;44.444;26.006;2023-02-03T03:01:49;100543.03;;;-0.11;76.34
46291;BME280;32023;44.444;26.006;2023-02-03T03:04:19;100547.06;;;-0.07;76.24
46291;BME280;32023;44.444;26.006;2023-02-03T03:07:00;100541.25;;;-0.04;75.64
46291;BME280;32023;44.444;26.006;2023-02-03T03:09:39;100547.81;;;0.02;75.28
46291;BME280;32023;44.444;26.006;2023-02-03T03:12:23;100556.22;;;0.07;74.79
46291;BME280;32023;44.444;26.006;2023-02-03T03:14:59;100561.50;;;0.15;74.63
46291;BME280;32023;44.444;26.006;2023-02-03T03:17:32;100564.88;;;0.17;74.01
46291;BME280;32023;44.444;26.006;2023-02-03T03:20:06;100569.91;;;0.20;73.77
46291;BME280;32023;44.444;26.006;2023-02-03T03:22:41;100564.78;;;0.25;73.48
46291;BME280;32023;44.444;26.006;2023-02-03T03:25:20;100562.53;;;0.29;73.09
46291;BME280;32023;44.444;26.006;2023-02-03T03:27:55;100561.53;;;0.30;72.98
46291;BME280;32023;44.444;26.006;2023-02-03T03:30:26;100568.59;;;0.31;72.91
46291;BME280;32023;44.444;26.006;2023-02-03T03:32:58;100571.22;;;0.24;72.82
46291;BME280;32023;44.444;26.006;2023-02-03T03:35:30;100566.81;;;0.23;72.88
46291;BME280;32023;44.444;26.006;2023-02-03T03:38:20;100570.59;;;0.22;72.95
46291;BME280;32023;44.444;26.006;2023-02-03T03:40:52;100568.22;;;0.19;72.73
46291;BME280;32023;44.444;26.006;2023-02-03T03:43:27;100569.28;;;0.18;72.63
46291;BME280;32023;44.444;26.006;2023-02-03T03:46:00;100563.41;;;0.15;72.61
46291;BME280;32023;44.444;26.006;2023-02-03T03:48:50;100574.69;;;0.18;72.59
46291;BME280;32023;44.444;26.006;2023-02-03T03:51:22;100575.31;;;0.20;72.67
46291;BME280;32023;44.444;26.006;2023-02-03T03:53:52;100577.88;;;0.22;72.64
46291;BME280;32023;44.444;26.006;2023-02-03T03:56:32;100577.47;;;0.25;72.80
46291;BME280;32023;44.444;26.006;2023-02-03T03:59:01;100574.00;;;0.31;72.70
46291;BME280;32023;44.444;26.006;2023-02-03T04:01:30;100567.41;;;0.33;72.58
46291;BME280;32023;44.444;26.006;2023-02-03T04:04:01;100576.16;;;0.35;72.67
46291;BME280;32023;44.444;26.006;2023-02-03T04:06:32;100575.31;;;0.35;72.44
46291;BME280;32023;44.444;26.006;2023-02-03T04:09:00;100569.91;;;0.35;72.59
46291;BME280;32023;44.444;26.006;2023-02-03T04:11:27;100579.88;;;0.34;72.56
46291;BME280;32023;44.444;26.006;2023-02-03T04:14:12;100582.41;;;0.36;72.72
46291;BME280;32023;44.444;26.006;2023-02-03T04:16:38;100590.63;;;0.42;72.64
46291;BME280;32023;44.444;26.006;2023-02-03T04:19:04;100592.94;;;0.45;72.40
46291;BME280;32023;44.444;26.006;2023-02-03T04:21:31;100592.22;;;0.52;72.30
46291;BME280;32023;44.444;26.006;2023-02-03T04:23:57;100602.28;;;0.58;72.29
46291;BME280;32023;44.444;26.006;2023-02-03T04:26:23;100605.28;;;0.63;71.97
46291;BME280;32023;44.444;26.006;2023-02-03T04:28:50;100616.56;;;0.66;71.90
46291;BME280;32023;44.444;26.006;2023-02-03T04:31:17;100613.00;;;0.66;71.68
46291;BME280;32023;44.444;26.006;2023-02-03T04:33:48;100614.88;;;0.65;71.98
46291;BME280;32023;44.444;26.006;2023-02-03T04:36:14;100627.88;;;0.70;72.09
46291;BME280;32023;44.444;26.006;2023-02-03T04:38:40;100617.75;;;0.78;72.09
46291;BME280;32023;44.444;26.006;2023-02-03T04:41:07;100638.50;;;0.86;71.75
46291;BME280;32023;44.444;26.006;2023-02-03T04:43:33;100626.69;;;0.93;71.38
46291;BME280;32023;44.444;26.006;2023-02-03T04:46:00;100628.91;;;1.05;71.03
46291;BME280;32023;44.444;26.006;2023-02-03T04:48:27;100640.94;;;1.17;70.80
46291;BME280;32023;44.444;26.006;2023-02-03T04:50:53;100639.13;;;1.24;70.34
46291;BME280;32023;44.444;26.006;2023-02-03T04:53:19;100647.97;;;1.32;70.20
46291;BME280;32023;44.444;26.006;2023-02-03T04:55:54;100648.56;;;1.28;69.51
46291;BME280;32023;44.444;26.006;2023-02-03T04:58:33;100656.72;;;1.28;69.53
46291;BME280;32023;44.444;26.006;2023-02-03T05:01:06;100651.91;;;1.30;69.14
46291;BME280;32023;44.444;26.006;2023-02-03T05:06:34;100661.47;;;1.26;69.27
46291;BME280;32023;44.444;26.006;2023-02-03T05:09:01;100650.09;;;1.16;68.97
46291;BME280;32023;44.444;26.006;2023-02-03T05:11:27;100656.28;;;1.10;69.05
46291;BME280;32023;44.444;26.006;2023-02-03T05:13:53;100659.88;;;0.95;69.26
46291;BME280;32023;44.444;26.006;2023-02-03T05:16:20;100664.19;;;0.90;69.34
46291;BME280;32023;44.444;26.006;2023-02-03T05:18:49;100664.75;;;0.85;69.43
46291;BME280;32023;44.444;26.006;2023-02-03T05:21:21;100677.28;;;0.86;69.59
46291;BME280;32023;44.444;26.006;2023-02-03T05:23:54;100672.13;;;0.91;69.74
46291;BME280;32023;44.444;26.006;2023-02-03T05:26:20;100682.78;;;0.93;69.35
46291;BME280;32023;44.444;26.006;2023-02-03T05:29:19;100683.25;;;0.96;69.33
46291;BME280;32023;44.444;26.006;2023-02-03T05:31:45;100687.91;;;1.03;69.36
46291;BME280;32023;44.444;26.006;2023-02-03T05:34:30;100698.38;;;1.06;69.21
46291;BME280;32023;44.444;26.006;2023-02-03T05:37:04;100710.03;;;1.06;69.41
46291;BME280;32023;44.444;26.006;2023-02-03T05:39:30;100710.03;;;1.06;69.37
46291;BME280;32023;44.444;26.006;2023-02-03T05:41:57;100714.28;;;1.09;69.52
46291;BME280;32023;44.444;26.006;2023-02-03T05:44:31;100711.34;;;1.10;69.12
46291;BME280;32023;44.444;26.006;2023-02-03T05:46:59;100698.47;;;1.12;69.18
46291;BME280;32023;44.444;26.006;2023-02-03T05:49:25;100703.50;;;1.15;69.06
46291;BME280;32023;44.444;26.006;2023-02-03T05:51:53;100713.50;;;1.15;68.59
46291;BME280;32023;44.444;26.006;2023-02-03T05:54:31;100718.94;;;1.15;68.51
46291;BME280;32023;44.444;26.006;2023-02-03T05:57:13;100720.34;;;1.11;68.48
46291;BME280;32023;44.444;26.006;2023-02-03T05:59:39;100718.47;;;1.11;68.34
46291;BME280;32023;44.444;26.006;2023-02-03T06:02:05;100723.72;;;1.13;68.64
46291;BME280;32023;44.444;26.006;2023-02-03T06:04:32;100731.47;;;1.16;68.31
46291;BME280;32023;44.444;26.006;2023-02-03T06:06:58;100733.78;;;1.19;68.39
46291;BME280;32023;44.444;26.006;2023-02-03T06:09:25;100732.84;;;1.26;68.33
46291;BME280;32023;44.444;26.006;2023-02-03T06:12:00;100735.72;;;1.25;67.99
46291;BME280;32023;44.444;26.006;2023-02-03T06:14:26;100734.97;;;1.31;68.12
46291;BME280;32023;44.444;26.006;2023-02-03T06:16:53;100745.06;;;1.37;68.03
46291;BME280;32023;44.444;26.006;2023-02-03T06:19:22;100741.84;;;1.48;67.82
46291;BME280;32023;44.444;26.006;2023-02-03T06:21:48;100745.47;;;1.55;67.71
46291;BME280;32023;44.444;26.006;2023-02-03T06:24:32;100740.78;;;1.64;67.49
46291;BME280;32023;44.444;26.006;2023-02-03T06:27:01;100744.22;;;1.72;67.24
46291;BME280;32023;44.444;26.006;2023-02-03T06:29:28;100743.25;;;1.80;67.21
46291;BME280;32023;44.444;26.006;2023-02-03T06:31:55;100744.72;;;1.82;66.90
46291;BME280;32023;44.444;26.006;2023-02-03T06:34:22;100753.25;;;1.79;66.43
46291;BME280;32023;44.444;26.006;2023-02-03T06:36:48;100749.25;;;1.75;65.98
46291;BME280;32023;44.444;26.006;2023-02-03T06:39:17;100754.84;;;1.74;65.90
46291;BME280;32023;44.444;26.006;2023-02-03T06:41:43;100751.56;;;1.78;65.89
46291;BME280;32023;44.444;26.006;2023-02-03T06:44:10;100757.44;;;1.82;66.20
46291;BME280;32023;44.444;26.006;2023-02-03T06:46:37;100757.31;;;1.90;66.13
46291;BME280;32023;44.444;26.006;2023-02-03T06:49:05;100768.91;;;1.99;66.31
46291;BME280;32023;44.444;26.006;2023-02-03T06:51:31;100759.97;;;2.05;66.02
46291;BME280;32023;44.444;26.006;2023-02-03T06:53:58;100771.38;;;2.15;66.06
46291;BME280;32023;44.444;26.006;2023-02-03T06:56:24;100780.66;;;2.27;65.87
46291;BME280;32023;44.444;26.006;2023-02-03T06:58:51;100776.38;;;2.39;65.77
46291;BME280;32023;44.444;26.006;2023-02-03T07:01:17;100779.59;;;2.49;65.14
46291;BME280;32023;44.444;26.006;2023-02-03T07:03:43;100788.66;;;2.56;64.87
46291;BME280;32023;44.444;26.006;2023-02-03T07:06:13;100783.06;;;2.64;63.86
46291;BME280;32023;44.444;26.006;2023-02-03T07:08:39;100789.81;;;2.75;63.43
46291;BME280;32023;44.444;26.006;2023-02-03T07:11:06;100792.03;;;2.92;62.59
46291;BME280;32023;44.444;26.006;2023-02-03T07:13:33;100804.25;;;3.10;62.02
46291;BME280;32023;44.444;26.006;2023-02-03T07:15:59;100809.38;;;3.26;61.59
46291;BME280;32023;44.444;26.006;2023-02-03T07:18:26;100814.31;;;3.50;60.91
46291;BME280;32023;44.444;26.006;2023-02-03T07:20:52;100816.72;;;3.79;60.47
46291;BME280;32023;44.444;26.006;2023-02-03T07:23:19;100819.28;;;4.01;59.48
46291;BME280;32023;44.444;26.006;2023-02-03T07:25:45;100820.59;;;4.24;58.92
46291;BME280;32023;44.444;26.006;2023-02-03T07:28:11;100820.22;;;4.41;58.47
46291;BME280;32023;44.444;26.006;2023-02-03T07:30:38;100831.53;;;4.57;58.48
46291;BME280;32023;44.444;26.006;2023-02-03T07:33:04;100840.34;;;4.72;57.84
46291;BME280;32023;44.444;26.006;2023-02-03T07:35:30;100827.75;;;4.84;57.97
46291;BME280;32023;44.444;26.006;2023-02-03T07:38:00;100832.38;;;4.91;57.96
46291;BME280;32023;44.444;26.006;2023-02-03T07:40:26;100824.19;;;4.91;57.60
46291;BME280;32023;44.444;26.006;2023-02-03T07:42:52;100819.78;;;4.96;57.32
46291;BME280;32023;44.444;26.006;2023-02-03T07:45:18;100829.44;;;5.05;57.32
46291;BME280;32023;44.444;26.006;2023-02-03T07:47:47;100823.09;;;5.11;56.34
46291;BME280;32023;44.444;26.006;2023-02-03T07:50:13;100826.88;;;5.10;55.83
46291;BME280;32023;44.444;26.006;2023-02-03T07:52:39;100836.38;;;4.95;55.56
46291;BME280;32023;44.444;26.006;2023-02-03T07:55:06;100836.97;;;5.10;56.26
46291;BME280;32023;44.444;26.006;2023-02-03T07:57:32;100837.16;;;5.15;54.92
46291;BME280;32023;44.444;26.006;2023-02-03T07:59:59;100850.38;;;5.18;55.23
46291;BME280;32023;44.444;26.006;2023-02-03T08:02:25;100849.75;;;5.16;55.74
46291;BME280;32023;44.444;26.006;2023-02-03T08:04:52;100857.13;;;5.15;55.36
46291;BME280;32023;44.444;26.006;2023-02-03T08:07:18;100857.56;;;5.06;55.58
46291;BME280;32023;44.444;26.006;2023-02-03T08:09:44;100864.25;;;5.03;55.50
46291;BME280;32023;44.444;26.006;2023-02-03T08:12:10;100864.06;;;5.05;55.75
46291;BME280;32023;44.444;26.006;2023-02-03T08:14:37;100850.63;;;5.10;56.13
46291;BME280;32023;44.444;26.006;2023-02-03T08:17:03;100854.19;;;5.17;56.02
46291;BME280;32023;44.444;26.006;2023-02-03T08:19:34;100858.16;;;5.21;55.50
46291;BME280;32023;44.444;26.006;2023-02-03T08:22:00;100851.22;;;5.31;55.88
46291;BME280;32023;44.444;26.006;2023-02-03T08:36:35;100843.03;;;7.08;50.50
46291;BME280;32023;44.444;26.006;2023-02-03T08:39:05;100849.63;;;7.25;50.29
46291;BME280;32023;44.444;26.006;2023-02-03T08:41:33;100839.81;;;7.72;49.49
46291;BME280;32023;44.444;26.006;2023-02-03T08:43:59;100834.97;;;8.04;48.29
46291;BME280;32023;44.444;26.006;2023-02-03T08:46:27;100839.56;;;8.21;47.35
46291;BME280;32023;44.444;26.006;2023-02-03T08:48:54;100846.97;;;8.51;46.36
46291;BME280;32023;44.444;26.006;2023-02-03T08:51:21;100862.25;;;8.58;45.85
46291;BME280;32023;44.444;26.006;2023-02-03T08:53:50;100865.69;;;8.54;45.42
46291;BME280;32023;44.444;26.006;2023-02-03T08:56:17;100868.34;;;8.49;45.27
46291;BME280;32023;44.444;26.006;2023-02-03T08:58:43;100863.22;;;8.52;45.14
46291;BME280;32023;44.444;26.006;2023-02-03T09:01:14;100863.56;;;8.56;44.47
46291;BME280;32023;44.444;26.006;2023-02-03T09:03:40;100880.78;;;8.63;44.61
46291;BME280;32023;44.444;26.006;2023-02-03T09:06:08;100872.81;;;8.73;44.11
46291;BME280;32023;44.444;26.006;2023-02-03T09:08:39;100872.59;;;8.86;43.67
46291;BME280;32023;44.444;26.006;2023-02-03T09:11:10;100872.97;;;9.01;43.93
46291;BME280;32023;44.444;26.006;2023-02-03T09:13:42;100870.47;;;9.23;43.11
46291;BME280;32023;44.444;26.006;2023-02-03T09:16:16;100883.50;;;9.51;42.01
46291;BME280;32023;44.444;26.006;2023-02-03T09:18:47;100868.28;;;9.72;41.34
46291;BME280;32023;44.444;26.006;2023-02-03T09:21:15;100869.00;;;9.79;41.48
46291;BME280;32023;44.444;26.006;2023-02-03T09:23:43;100869.22;;;9.89;41.14
46291;BME280;32023;44.444;26.006;2023-02-03T09:26:11;100872.06;;;9.94;41.18
46291;BME280;32023;44.444;26.006;2023-02-03T09:28:38;100875.56;;;9.89;40.71
46291;BME280;32023;44.444;26.006;2023-02-03T09:31:08;100871.03;;;9.72;40.36
46291;BME280;32023;44.444;26.006;2023-02-03T09:33:35;100869.41;;;9.59;40.84
46291;BME280;32023;44.444;26.006;2023-02-03T09:36:01;100876.47;;;9.20;42.09
46291;BME280;32023;44.444;26.006;2023-02-03T09:38:29;100873.34;;;9.05;42.64
46291;BME280;32023;44.444;26.006;2023-02-03T09:46:34;100866.31;;;9.32;42.45
46291;BME280;32023;44.444;26.006;2023-02-03T09:49:10;100869.88;;;9.56;42.15
46291;BME280;32023;44.444;26.006;2023-02-03T09:57:00;100872.88;;;9.08;43.70
46291;BME280;32023;44.444;26.006;2023-02-03T09:59:32;100873.88;;;8.60;44.61
46291;BME280;32023;44.444;26.006;2023-02-03T10:05:34;100878.78;;;7.56;46.78
46291;BME280;32023;44.444;26.006;2023-02-03T10:08:21;100879.78;;;7.43;48.68
46291;BME280;32023;44.444;26.006;2023-02-03T10:11:11;100873.25;;;7.19;47.75
46291;BME280;32023;44.444;26.006;2023-02-03T10:19:57;100883.50;;;7.06;48.86
46291;BME280;32023;44.444;26.006;2023-02-03T10:22:30;100879.41;;;7.15;50.07
46291;BME280;32023;44.444;26.006;2023-02-03T10:25:00;100873.47;;;7.18;48.24
46291;BME280;32023;44.444;26.006;2023-02-03T10:27:41;100870.25;;;7.46;48.08
46291;BME280;32023;44.444;26.006;2023-02-03T10:30:52;100869.09;;;7.90;46.79
46291;BME280;32023;44.444;26.006;2023-02-03T10:41:00;100867.88;;;11.59;39.51
46291;BME280;32023;44.444;26.006;2023-02-03T10:50:54;100850.00;;;18.78;25.32
46291;BME280;32023;44.444;26.006;2023-02-03T10:53:35;100848.91;;;18.13;26.07
46291;BME280;32023;44.444;26.006;2023-02-03T10:56:28;100842.00;;;17.00;26.29
46291;BME280;32023;44.444;26.006;2023-02-03T10:58:59;100838.38;;;16.12;28.04
46291;BME280;32023;44.444;26.006;2023-02-03T11:01:46;100847.41;;;17.78;26.10
46291;BME280;32023;44.444;26.006;2023-02-03T11:04:40;100828.41;;;20.93;22.82
46291;BME280;32023;44.444;26.006;2023-02-03T11:07:25;100827.81;;;23.66;20.01
46291;BME280;32023;44.444;26.006;2023-02-03T11:09:52;100825.50;;;24.06;18.55
46291;BME280;32023;44.444;26.006;2023-02-03T11:12:19;100825.34;;;24.02;18.80
46291;BME280;32023;44.444;26.006;2023-02-03T11:14:52;100825.38;;;23.56;18.79
46291;BME280;32023;44.444;26.006;2023-02-03T11:28:27;100796.38;;;25.79;15.93
46291;BME280;32023;44.444;26.006;2023-02-03T11:36:37;100787.72;;;27.01;14.16
46291;BME280;32023;44.444;26.006;2023-02-03T11:42:08;100777.56;;;27.27;13.98
46291;BME280;32023;44.444;26.006;2023-02-03T11:45:48;100772.34;;;27.14;14.02
46291;BME280;32023;44.444;26.006;2023-02-03T11:51:29;100768.94;;;26.04;14.89
46291;BME280;32023;44.444;26.006;2023-02-03T12:11:08;100771.91;;;24.31;17.74
46291;BME280;32023;44.444;26.006;2023-02-03T12:22:00;100766.88;;;23.32;18.99
46291;BME280;32023;44.444;26.006;2023-02-03T12:30:04;100761.75;;;20.73;20.15
46291;BME280;32023;44.444;26.006;2023-02-03T12:32:53;100759.94;;;20.77;19.70
46291;BME280;32023;44.444;26.006;2023-02-03T12:38:35;100753.34;;;19.74;20.78
46291;BME280;32023;44.444;26.006;2023-02-03T12:41:19;100754.59;;;19.08;21.60
46291;BME280;32023;44.444;26.006;2023-02-03T12:43:52;100758.38;;;18.48;22.24
46291;BME280;32023;44.444;26.006;2023-02-03T12:46:29;100756.47;;;17.87;23.38
46291;BME280;32023;44.444;26.006;2023-02-03T12:49:43;100753.88;;;17.48;24.38
46291;BME280;32023;44.444;26.006;2023-02-03T13:11:47;100739.88;;;14.89;29.46
46291;BME280;32023;44.444;26.006;2023-02-03T13:14:53;100723.56;;;14.53;30.50
46291;BME280;32023;44.444;26.006;2023-02-03T13:20:48;100725.13;;;14.03;31.11
46291;BME280;32023;44.444;26.006;2023-02-03T13:23:17;100726.78;;;13.99;31.23
46291;BME280;32023;44.444;26.006;2023-02-03T13:26:17;100722.81;;;13.75;31.57
46291;BME280;32023;44.444;26.006;2023-02-03T13:29:22;100714.66;;;13.33;32.52
46291;BME280;32023;44.444;26.006;2023-02-03T13:35:06;100714.66;;;12.91;33.55
46291;BME280;32023;44.444;26.006;2023-02-03T13:40:55;100708.19;;;12.38;34.08
46291;BME280;32023;44.444;26.006;2023-02-03T13:43:48;100707.13;;;12.44;34.33
46291;BME280;32023;44.444;26.006;2023-02-03T13:46:35;100704.63;;;12.43;34.67
46291;BME280;32023;44.444;26.006;2023-02-03T13:49:09;100702.38;;;12.35;34.75
46291;BME280;32023;44.444;26.006;2023-02-03T13:52:00;100704.75;;;12.26;35.13
46291;BME280;32023;44.444;26.006;2023-02-03T13:55:01;100697.25;;;12.22;35.51
46291;BME280;32023;44.444;26.006;2023-02-03T14:07:40;100697.34;;;11.73;36.23
46291;BME280;32023;44.444;26.006;2023-02-03T14:10:23;100690.81;;;11.36;36.89
46291;BME280;32023;44.444;26.006;2023-02-03T14:12:55;100695.41;;;11.08;37.91
46291;BME280;32023;44.444;26.006;2023-02-03T14:18:44;100693.06;;;10.79;38.55
46291;BME280;32023;44.444;26.006;2023-02-03T14:24:29;100682.56;;;10.42;39.02
46291;BME280;32023;44.444;26.006;2023-02-03T14:27:29;100685.66;;;10.29;39.19
46291;BME280;32023;44.444;26.006;2023-02-03T14:30:33;100686.19;;;9.98;40.00
46291;BME280;32023;44.444;26.006;2023-02-03T14:33:18;100679.22;;;9.79;40.70
46291;BME280;32023;44.444;26.006;2023-02-03T14:39:30;100676.69;;;9.32;41.67
46291;BME280;32023;44.444;26.006;2023-02-03T15:00:07;100663.44;;;7.90;44.97
46291;BME280;32023;44.444;26.006;2023-02-03T15:11:29;100652.31;;;7.32;47.38
46291;BME280;32023;44.444;26.006;2023-02-03T15:14:26;100654.84;;;7.15;47.91
46291;BME280;32023;44.444;26.006;2023-02-03T15:16:59;100656.53;;;6.98;48.90
46291;BME280;32023;44.444;26.006;2023-02-03T15:19:34;100657.16;;;6.82;50.10
46291;BME280;32023;44.444;26.006;2023-02-03T15:22:21;100653.03;;;6.72;50.81
46291;BME280;32023;44.444;26.006;2023-02-03T15:24:59;100649.78;;;6.64;51.50
46291;BME280;32023;44.444;26.006;2023-02-03T15:27:36;100649.97;;;6.44;52.62
46291;BME280;32023;44.444;26.006;2023-02-03T15:30:24;100648.56;;;6.17;54.58
46291;BME280;32023;44.444;26.006;2023-02-03T15:33:14;100646.28;;;5.89;56.37
46291;BME280;32023;44.444;26.006;2023-02-03T15:35:45;100646.22;;;5.64;57.30
46291;BME280;32023;44.444;26.006;2023-02-03T15:38:24;100651.34;;;5.48;58.54
46291;BME280;32023;44.444;26.006;2023-02-03T15:40:54;100649.56;;;5.35;59.44
46291;BME280;32023;44.444;26.006;2023-02-03T15:43:30;100656.56;;;5.18;60.41
46291;BME280;32023;44.444;26.006;2023-02-03T15:46:40;100649.31;;;4.99;61.63
46291;BME280;32023;44.444;26.006;2023-02-03T15:52:06;100653.59;;;4.75;63.00
46291;BME280;32023;44.444;26.006;2023-02-03T15:55:09;100644.22;;;4.64;63.80
46291;BME280;32023;44.444;26.006;2023-02-03T15:58:00;100655.13;;;4.51;64.30
46291;BME280;32023;44.444;26.006;2023-02-03T16:00:36;100660.81;;;4.43;64.78
46291;BME280;32023;44.444;26.006;2023-02-03T16:06:32;100654.56;;;4.23;65.65
46291;BME280;32023;44.444;26.006;2023-02-03T16:09:30;100652.91;;;4.15;66.66
46291;BME280;32023;44.444;26.006;2023-02-03T16:12:17;100651.41;;;4.13;66.62
46291;BME280;32023;44.444;26.006;2023-02-03T16:14:53;100649.31;;;4.08;66.84
46291;BME280;32023;44.444;26.006;2023-02-03T16:17:27;100637.59;;;4.08;67.43
46291;BME280;32023;44.444;26.006;2023-02-03T16:22:42;100647.47;;;3.96;67.79
46291;BME280;32023;44.444;26.006;2023-02-03T16:25:28;100638.22;;;3.97;67.72
46291;BME280;32023;44.444;26.006;2023-02-03T16:31:02;100630.91;;;3.77;68.26
46291;BME280;32023;44.444;26.006;2023-02-03T16:33:56;100627.97;;;3.72;68.48
46291;BME280;32023;44.444;26.006;2023-02-03T16:36:45;100622.28;;;3.67;69.42
46291;BME280;32023;44.444;26.006;2023-02-03T16:39:30;100616.00;;;3.60;69.19
46291;BME280;32023;44.444;26.006;2023-02-03T16:42:21;100625.88;;;3.55;69.45
46291;BME280;32023;44.444;26.006;2023-02-03T16:45:15;100605.53;;;3.51;70.11
46291;BME280;32023;44.444;26.006;2023-02-03T16:48:01;100611.59;;;3.46;69.96
46291;BME280;32023;44.444;26.006;2023-02-03T16:50:46;100606.97;;;3.40;70.27
46291;BME280;32023;44.444;26.006;2023-02-03T16:55:51;100606.34;;;3.38;70.27
46291;BME280;32023;44.444;26.006;2023-02-03T16:58:21;100595.66;;;3.30;71.11
46291;BME280;32023;44.444;26.006;2023-02-03T17:00:49;100602.56;;;3.26;71.02
46291;BME280;32023;44.444;26.006;2023-02-03T17:03:37;100601.53;;;3.20;71.47